createdAt,value
2022-07-28T00:00:38.822Z,86.93
2022-07-28T00:03:41.414Z,86.84
2022-07-28T00:06:44.008Z,86.53
2022-07-28T00:09:46.643Z,86.16
2022-07-28T00:12:49.313Z,86.94
2022-07-28T00:15:53.360Z,88.08
2022-07-28T00:18:55.963Z,86.74
2022-07-28T00:21:58.552Z,87.51
2022-07-28T00:25:01.136Z,87.37
2022-07-28T00:28:03.708Z,87.83
2022-07-28T00:31:10.974Z,88.35
2022-07-28T00:34:15.029Z,87.91
2022-07-28T00:37:17.829Z,87.99
2022-07-28T00:40:20.494Z,87.84
2022-07-28T00:43:23.124Z,88.07
2022-07-28T00:46:27.094Z,88.67
2022-07-28T00:49:29.787Z,89.08
2022-07-28T00:52:34.001Z,88.87
2022-07-28T00:56:03.389Z,88.06
2022-07-28T00:58:59.215Z,88.89
2022-07-28T01:02:04.110Z,87.75
2022-07-28T01:05:07.460Z,88.56
2022-07-28T01:08:17.565Z,89.14
2022-07-28T01:11:30.748Z,88.98
2022-07-28T01:14:40.129Z,88.09
2022-07-28T01:17:53.544Z,89.58
2022-07-28T01:21:03.176Z,91.29
2022-07-28T01:24:22.746Z,90.97
2022-07-28T01:27:37.003Z,90.08
2022-07-28T01:30:42.912Z,89.20
2022-07-28T01:33:48.487Z,89.19
2022-07-28T01:36:55.983Z,89.75
2022-07-28T01:40:02.382Z,90.55
2022-07-28T01:43:08.784Z,89.80
2022-07-28T01:46:17.909Z,91.16
2022-07-28T01:49:22.364Z,90.77
2022-07-28T01:52:27.231Z,91.03
2022-07-28T01:55:30.697Z,91.23
2022-07-28T01:58:35.195Z,91.08
2022-07-28T02:01:44.554Z,90.49
2022-07-28T02:04:49.035Z,91.50
2022-07-28T02:07:54.245Z,91.77
2022-07-28T02:11:17.671Z,91.25
2022-07-28T02:14:23.110Z,90.25
2022-07-28T02:17:31.833Z,90.96
2022-07-28T02:20:34.966Z,91.40
2022-07-28T02:23:40.133Z,92.03
2022-07-28T02:26:47.402Z,91.38
2022-07-28T02:29:52.137Z,91.42
2022-07-28T02:32:58.028Z,92.41
2022-07-28T02:36:06.303Z,92.98
2022-07-28T02:39:13.054Z,92.11
2022-07-28T02:42:19.531Z,92.65
2022-07-28T02:45:26.314Z,92.82
2022-07-28T02:48:32.465Z,92.93
2022-07-28T02:51:36.178Z,92.72
2022-07-28T02:54:40.793Z,93.00
2022-07-28T02:57:45.135Z,93.49
2022-07-28T03:00:48.552Z,93.02
2022-07-28T03:03:55.408Z,93.82
2022-07-28T03:06:58.246Z,93.66
2022-07-28T03:10:01.489Z,93.97
2022-07-28T03:13:06.791Z,93.28
2022-07-28T03:16:09.957Z,94.23
2022-07-28T03:19:13.928Z,94.30
2022-07-28T03:22:16.693Z,94.87
2022-07-28T03:25:24.459Z,94.98
2022-07-28T03:28:29.359Z,95.28
2022-07-28T03:31:34.949Z,94.90
2022-07-28T03:34:39.152Z,96.07
2022-07-28T03:37:47.803Z,95.52
2022-07-28T03:40:53.947Z,94.72
2022-07-28T03:43:57.821Z,94.38
2022-07-28T03:47:00.540Z,94.67
2022-07-28T03:50:04.991Z,95.14
2022-07-28T03:53:20.027Z,94.41
2022-07-28T03:56:23.113Z,94.48
2022-07-28T03:59:25.756Z,93.91
2022-07-28T04:02:28.531Z,93.75
2022-07-28T04:05:32.502Z,95.50
2022-07-28T04:08:35.505Z,93.92
2022-07-28T04:11:38.044Z,93.33
2022-07-28T04:14:40.759Z,91.66
2022-07-28T04:17:43.820Z,91.41
2022-07-28T04:20:47.734Z,92.86
2022-07-28T04:23:50.376Z,94.80
2022-07-28T04:26:53.027Z,94.82
2022-07-28T04:29:55.783Z,93.46
2022-07-28T04:32:58.564Z,94.10
2022-07-28T04:36:02.569Z,93.62
2022-07-28T04:39:05.391Z,94.96
2022-07-28T04:42:08.251Z,94.83
2022-07-28T04:45:12.687Z,95.02
2022-07-28T04:48:15.259Z,94.46
2022-07-28T04:51:23.016Z,94.11
2022-07-28T04:54:26.865Z,94.99
2022-07-28T04:57:30.053Z,94.12
2022-07-28T05:00:33.197Z,94.50
2022-07-28T05:03:36.453Z,95.21
2022-07-28T05:06:40.497Z,95.16
2022-07-28T05:09:43.091Z,95.03
2022-07-28T05:12:47.178Z,95.50
2022-07-28T05:15:49.763Z,94.38
2022-07-28T05:18:52.377Z,94.13
2022-07-28T05:21:56.381Z,93.35
2022-07-28T05:24:58.985Z,92.61
2022-07-28T05:28:01.530Z,92.76
2022-07-28T05:31:04.301Z,92.66
2022-07-28T05:34:07.080Z,94.45
2022-07-28T05:37:11.003Z,93.79
2022-07-28T05:40:15.854Z,92.52
2022-07-28T05:43:18.642Z,92.73
2022-07-28T05:46:21.376Z,92.85
2022-07-28T05:49:24.309Z,92.98
2022-07-28T05:52:28.796Z,92.17
2022-07-28T05:55:31.811Z,90.31
2022-07-28T05:58:34.372Z,89.64
2022-07-28T06:01:38.187Z,90.19
2022-07-28T06:04:40.873Z,91.13
2022-07-28T06:07:45.079Z,90.25
2022-07-28T06:11:09.151Z,89.85
2022-07-28T06:14:11.974Z,89.46
2022-07-28T06:17:15.945Z,88.16
2022-07-28T06:20:18.966Z,88.03
2022-07-28T06:23:23.692Z,89.24
2022-07-28T06:26:26.286Z,88.69
2022-07-28T06:29:28.969Z,86.40
2022-07-28T06:32:31.547Z,85.33
2022-07-28T06:35:47.671Z,84.01
2022-07-28T06:38:55.163Z,85.51
2022-07-28T06:41:57.751Z,83.96
2022-07-28T06:45:00.603Z,81.73
2022-07-28T06:48:03.210Z,79.89
2022-07-28T06:51:06.161Z,81.39
2022-07-28T06:54:11.511Z,78.96
2022-07-28T06:57:14.707Z,79.73
2022-07-28T07:00:19.787Z,79.70
2022-07-28T07:03:22.397Z,82.32
2022-07-28T07:06:25.022Z,78.36
2022-07-28T07:09:29.102Z,78.25
2022-07-28T07:12:33.681Z,77.97
2022-07-28T07:15:36.253Z,76.65
2022-07-28T07:18:38.836Z,74.87
2022-07-28T07:21:41.450Z,76.10
2022-07-28T07:24:45.369Z,77.91
2022-07-28T07:27:49.034Z,75.42
2022-07-28T07:30:51.705Z,73.53
2022-07-28T07:33:54.246Z,71.14
2022-07-28T07:36:56.816Z,72.46
2022-07-28T07:40:01.170Z,75.61
2022-07-28T07:43:03.823Z,72.57
2022-07-28T07:46:08.166Z,68.50
2022-07-28T07:49:10.989Z,67.45
2022-07-28T07:52:13.818Z,67.98
2022-07-28T07:55:18.177Z,64.57
2022-07-28T07:58:20.797Z,66.65
2022-07-28T08:01:23.443Z,63.81
2022-07-28T08:04:26.592Z,64.05
2022-07-28T08:07:31.383Z,64.95
2022-07-28T08:10:35.423Z,66.21
2022-07-28T08:13:37.973Z,66.98
2022-07-28T08:16:40.593Z,65.73
2022-07-28T08:19:43.370Z,62.92
2022-07-28T08:22:49.512Z,63.45
2022-07-28T08:25:53.496Z,60.18
2022-07-28T08:28:56.436Z,62.61
2022-07-28T08:31:59.234Z,59.85
2022-07-28T08:35:30.263Z,59.72
2022-07-28T08:38:24.415Z,62.32
2022-07-28T08:41:33.954Z,60.19
2022-07-28T08:44:48.429Z,61.60
2022-07-28T08:48:07.887Z,61.08
2022-07-28T08:51:13.355Z,63.46
2022-07-28T08:54:21.243Z,64.02
2022-07-28T08:57:35.781Z,63.05
2022-07-28T09:00:38.492Z,65.09
2022-07-28T09:03:42.519Z,63.56
2022-07-28T09:06:45.264Z,61.97
2022-07-28T09:09:50.327Z,63.41
2022-07-28T09:12:55.275Z,61.13
2022-07-28T09:16:00.122Z,64.29
2022-07-28T09:19:02.788Z,61.12
2022-07-28T09:22:05.859Z,61.39
2022-07-28T09:25:19.551Z,58.43
2022-07-28T09:28:24.540Z,61.84
2022-07-28T09:31:29.335Z,60.90
2022-07-28T09:34:41.429Z,62.28
2022-07-28T09:37:44.139Z,61.42
2022-07-28T09:40:59.257Z,60.74
2022-07-28T09:44:03.200Z,60.10
2022-07-28T09:47:22.889Z,61.33
2022-07-28T09:50:30.130Z,61.69
2022-07-28T09:53:32.693Z,61.66
2022-07-28T09:56:35.660Z,60.33
2022-07-28T09:59:43.768Z,58.97
2022-07-28T10:02:51.500Z,59.13
2022-07-28T10:05:54.834Z,57.84
2022-07-28T10:08:59.339Z,56.82
2022-07-28T10:12:18.527Z,58.99
2022-07-28T10:15:45.540Z,57.79
2022-07-28T10:18:53.930Z,57.78
2022-07-28T10:21:58.446Z,57.43
2022-07-28T10:25:03.227Z,59.45
2022-07-28T10:28:06.874Z,55.87
2022-07-28T10:31:15.396Z,53.94
2022-07-28T10:34:24.782Z,52.91
2022-07-28T10:37:29.411Z,53.92
2022-07-28T10:40:36.728Z,54.94
2022-07-28T10:43:42.938Z,54.19
2022-07-28T10:46:50.807Z,51.60
2022-07-28T10:49:53.578Z,50.14
2022-07-28T10:52:59.440Z,47.83
2022-07-28T10:56:08.217Z,49.23
2022-07-28T10:59:23.107Z,47.96
2022-07-28T11:02:47.893Z,50.45
2022-07-28T11:05:51.542Z,49.95
2022-07-28T11:08:54.688Z,51.40
2022-07-28T11:11:57.864Z,52.80
2022-07-28T11:15:15.802Z,52.56
2022-07-28T11:18:23.685Z,49.94
2022-07-28T11:21:26.294Z,49.06
2022-07-28T11:25:20.565Z,50.94
2022-07-28T11:28:24.179Z,52.63
2022-07-28T11:31:56.493Z,54.30
2022-07-28T11:35:09.452Z,52.29
2022-07-28T11:38:14.393Z,52.66
2022-07-28T11:41:31.031Z,54.46
2022-07-28T11:44:34.333Z,52.59
2022-07-28T11:47:37.528Z,52.02
2022-07-28T11:50:42.152Z,50.95
2022-07-28T11:53:46.767Z,49.50
2022-07-28T11:56:58.166Z,50.88
2022-07-28T12:00:03.456Z,54.28
2022-07-28T12:03:06.182Z,52.75
2022-07-28T12:06:10.653Z,54.36
2022-07-28T12:09:14.153Z,52.09
2022-07-28T12:12:16.802Z,52.53
2022-07-28T12:15:20.264Z,52.93
2022-07-28T12:18:24.804Z,51.07
2022-07-28T12:21:46.172Z,52.24
2022-07-28T12:24:57.754Z,52.43
2022-07-28T12:28:14.175Z,52.26
2022-07-28T12:31:17.062Z,50.74
2022-07-28T12:34:20.085Z,53.73
2022-07-28T12:37:24.531Z,50.51
2022-07-28T12:40:30.343Z,47.22
2022-07-28T12:43:34.213Z,46.94
2022-07-28T12:46:36.903Z,46.75
2022-07-28T12:49:42.750Z,46.71
2022-07-28T12:53:03.434Z,48.73
2022-07-28T12:56:06.372Z,46.81
2022-07-28T12:59:10.647Z,49.07
2022-07-28T13:02:13.364Z,47.23
2022-07-28T13:05:30.176Z,48.55
2022-07-28T13:08:44.338Z,49.23
2022-07-28T13:11:48.080Z,49.87
2022-07-28T13:14:52.641Z,50.76
2022-07-28T13:17:56.981Z,50.14
2022-07-28T13:20:59.528Z,48.62
2022-07-28T13:24:03.583Z,47.86
2022-07-28T13:27:06.930Z,48.49
2022-07-28T13:30:11.252Z,48.50
2022-07-28T13:33:14.206Z,48.82
2022-07-28T13:36:16.953Z,50.39
2022-07-28T13:39:21.014Z,49.87
2022-07-28T13:42:23.922Z,49.33
2022-07-28T13:45:30.330Z,48.41
2022-07-28T13:48:35.704Z,47.63
2022-07-28T13:51:38.363Z,45.24
2022-07-28T13:54:42.331Z,45.35
2022-07-28T13:57:45.258Z,42.83
2022-07-28T14:00:57.462Z,42.24
2022-07-28T14:04:01.070Z,43.41
2022-07-28T14:07:03.725Z,42.14
2022-07-28T14:10:08.935Z,42.43
2022-07-28T14:13:11.537Z,40.04
2022-07-28T14:16:14.688Z,38.96
2022-07-28T14:19:23.565Z,40.43
2022-07-28T14:22:40.317Z,40.42
2022-07-28T16:25:21.252Z,48.75
2022-07-28T16:28:23.835Z,48.03
2022-07-28T16:31:27.845Z,50.25
2022-07-28T16:34:30.511Z,49.68
2022-07-28T16:37:33.283Z,48.89
2022-07-28T16:40:37.246Z,48.72
2022-07-28T16:43:44.610Z,48.45
2022-07-28T16:46:47.723Z,49.68
2022-07-28T16:49:50.439Z,46.66
2022-07-28T16:52:54.103Z,47.41
2022-07-28T16:55:58.026Z,47.98
2022-07-28T16:59:01.099Z,48.34
2022-07-28T17:02:03.820Z,48.44
2022-07-28T17:05:07.487Z,49.90
2022-07-28T17:08:10.253Z,50.17
2022-07-28T17:11:14.162Z,52.73
2022-07-28T17:14:18.939Z,48.48
2022-07-28T17:17:21.759Z,51.00
2022-07-28T17:20:25.398Z,51.02
2022-07-28T17:23:28.005Z,50.56
2022-07-28T17:29:56.989Z,54.25
2022-07-28T17:33:06.097Z,49.46
2022-07-28T17:36:10.832Z,49.12
2022-07-28T17:39:13.751Z,50.43
2022-07-28T17:42:17.681Z,50.19
2022-07-28T17:45:20.473Z,50.79
2022-07-28T17:48:23.375Z,51.70
2022-07-28T17:51:26.626Z,53.58
2022-07-28T17:54:49.188Z,49.78
2022-07-28T17:57:53.622Z,50.26
2022-07-28T18:00:58.017Z,52.69
2022-07-28T18:04:11.940Z,54.29
2022-07-28T18:07:14.962Z,54.85
2022-07-28T18:10:18.664Z,52.29
2022-07-28T18:13:29.524Z,55.49
2022-07-28T18:16:32.130Z,55.34
2022-07-28T18:19:34.731Z,54.85
2022-07-28T18:22:37.271Z,59.01
2022-07-28T18:25:44.884Z,59.14
2022-07-28T18:28:49.339Z,60.48
2022-07-28T18:31:52.281Z,60.85
2022-07-28T18:34:55.080Z,62.19
2022-07-28T18:37:57.839Z,61.40
2022-07-28T18:41:00.916Z,60.92
2022-07-28T18:44:05.039Z,59.16
2022-07-28T18:47:07.612Z,58.53
2022-07-28T18:50:27.796Z,62.51
2022-07-28T18:53:33.322Z,62.48
2022-07-28T18:56:35.887Z,62.08
2022-07-28T18:59:44.579Z,60.50
2022-07-28T19:02:49.241Z,60.50
2022-07-28T19:05:53.673Z,62.51
2022-07-28T19:08:56.799Z,63.04
2022-07-28T19:12:00.595Z,63.94
2022-07-28T19:15:05.375Z,65.45
2022-07-28T19:18:10.575Z,65.98
2022-07-28T19:21:14.440Z,67.08
2022-07-28T19:24:17.829Z,66.82
2022-07-28T19:27:20.807Z,68.11
2022-07-28T19:30:24.850Z,67.11
2022-07-28T19:33:27.593Z,68.20
2022-07-28T19:36:30.769Z,69.18
2022-07-28T19:39:34.773Z,68.38
2022-07-28T19:42:37.329Z,69.94
2022-07-28T19:45:41.425Z,69.35
2022-07-28T19:48:44.103Z,70.32
2022-07-28T19:51:46.714Z,70.44
2022-07-28T19:54:51.303Z,71.46
2022-07-28T19:57:54.961Z,72.59
2022-07-28T20:00:59.704Z,72.08
2022-07-28T20:04:05.166Z,72.71
2022-07-28T20:07:08.017Z,72.53
2022-07-28T20:10:10.957Z,72.67
2022-07-28T20:13:13.566Z,72.70
2022-07-28T20:16:17.890Z,73.07
2022-07-28T20:19:20.540Z,73.69
2022-07-28T20:22:23.263Z,74.92
2022-07-28T20:25:25.960Z,74.14
2022-07-28T20:28:28.696Z,74.99
2022-07-28T20:31:33.087Z,75.88
2022-07-28T20:34:35.702Z,75.11
2022-07-28T20:37:41.254Z,75.66
2022-07-28T20:40:43.837Z,75.14
2022-07-28T20:43:59.690Z,76.10
2022-07-28T20:47:10.368Z,76.74
2022-07-28T20:50:14.554Z,75.95
2022-07-28T20:53:17.139Z,77.42
2022-07-28T20:56:19.733Z,76.90
2022-07-28T20:59:27.475Z,76.89
2022-07-28T21:02:32.069Z,77.13
2022-07-28T21:05:35.739Z,78.36
2022-07-28T21:08:38.758Z,76.03
2022-07-28T21:11:42.018Z,78.76
2022-07-28T21:14:44.615Z,77.56
2022-07-28T21:17:48.867Z,77.78
2022-07-28T21:20:51.457Z,78.99
2022-07-28T21:23:54.365Z,78.42
2022-07-28T21:26:56.957Z,77.28
2022-07-28T21:33:01.412Z,79.16
2022-07-28T21:36:04.633Z,78.85
2022-07-28T21:39:07.242Z,78.31
2022-07-28T21:42:09.919Z,78.06
2022-07-28T21:45:12.619Z,79.41
2022-07-28T21:48:19.126Z,79.60
2022-07-28T21:51:22.386Z,80.23
2022-07-28T21:54:25.063Z,79.22
2022-07-28T21:57:27.741Z,79.69
2022-07-28T22:00:30.624Z,80.17
2022-07-28T22:03:34.750Z,80.32
2022-07-28T22:06:37.383Z,80.76
2022-07-28T22:09:39.983Z,81.13
2022-07-28T22:12:42.650Z,81.84
2022-07-28T22:15:45.423Z,80.46
2022-07-28T22:18:49.401Z,81.39
2022-07-28T22:21:51.996Z,82.64
2022-07-28T22:24:56.820Z,82.13
2022-07-28T22:27:59.407Z,82.63
2022-07-28T22:31:08.826Z,83.14
2022-07-28T22:34:14.347Z,82.29
2022-07-28T22:37:17.203Z,82.50
2022-07-28T22:40:20.169Z,83.91
2022-07-28T22:43:22.725Z,83.41
2022-07-28T22:46:25.433Z,84.04
2022-07-28T22:49:29.668Z,83.29
2022-07-28T22:52:32.713Z,84.22
2022-07-28T22:55:35.307Z,84.55
2022-07-28T22:58:37.885Z,85.22
2022-07-28T23:01:40.477Z,85.23
2022-07-28T23:04:49.592Z,85.69
2022-07-28T23:07:57.255Z,86.05
2022-07-28T23:11:01.259Z,85.61
2022-07-28T23:14:03.890Z,85.77
2022-07-28T23:17:06.462Z,86.00
2022-07-28T23:20:11.658Z,86.16
2022-07-28T23:23:18.184Z,86.08
2022-07-28T23:26:20.774Z,86.65
2022-07-28T23:29:23.493Z,85.96
2022-07-28T23:32:26.111Z,85.79
2022-07-28T23:35:30.105Z,87.25
2022-07-28T23:38:32.717Z,86.73
2022-07-28T23:41:35.304Z,86.99
2022-07-28T23:44:37.914Z,86.48
2022-07-28T23:47:40.540Z,87.45
2022-07-28T23:50:44.502Z,86.66
2022-07-28T23:53:47.096Z,87.04
2022-07-28T23:56:55.041Z,86.16
2022-07-28T23:59:57.726Z,87.58
